sensor_id;sensor_type;location;lat;lon;timestamp;pressure;altitude;pressure_sealevel;temperature;humidity
20077;BME280;12348;42.710;23.378;2022-08-21T00:00:21;94617.41;;;17.82;100.00
20077;BME280;12348;42.710;23.378;2022-08-21T00:02:54;94614.53;;;18.06;100.00
20077;BME280;12348;42.710;23.378;2022-08-21T00:05:22;94622.38;;;18.08;100.00
20077;BME280;12348;42.710;23.378;2022-08-21T00:07:50;94625.81;;;18.21;100.00
20077;BME280;12348;42.710;23.378;2022-08-21T00:10:16;94613.75;;;18.22;100.00
20077;BME280;12348;42.710;23.378;2022-08-21T00:12:44;94609.28;;;18.29;100.00
20077;BME280;12348;42.710;23.378;2022-08-21T00:15:13;94604.88;;;18.25;100.00
20077;BME280;12348;42.710;23.378;2022-08-21T00:17:40;94600.03;;;18.18;100.00
20077;BME280;12348;42.710;23.378;2022-08-21T00:20:14;94609.47;;;18.21;100.00
20077;BME280;12348;42.710;23.378;2022-08-21T00:22:41;94602.63;;;18.27;100.00
20077;BME280;12348;42.710;23.378;2022-08-21T00:25:09;94600.81;;;18.18;100.00
20077;BME280;12348;42.710;23.378;2022-08-21T00:27:37;94599.44;;;18.25;100.00
20077;BME280;12348;42.710;23.378;2022-08-21T00:30:06;94601.47;;;18.28;100.00
20077;BME280;12348;42.710;23.378;2022-08-21T00:32:33;94593.81;;;18.17;100.00
20077;BME280;12348;42.710;23.378;2022-08-21T00:35:00;94592.50;;;18.11;100.00
20077;BME280;12348;42.710;23.378;2022-08-21T00:37:28;94588.34;;;18.17;100.00
20077;BME280;12348;42.710;23.378;2022-08-21T00:39:55;94597.06;;;18.23;100.00
20077;BME280;12348;42.710;23.378;2022-08-21T00:42:22;94601.47;;;18.28;100.00
20077;BME280;12348;42.710;23.378;2022-08-21T00:44:49;94599.81;;;18.23;100.00
20077;BME280;12348;42.710;23.378;2022-08-21T00:47:17;94597.88;;;18.24;100.00
20077;BME280;12348;42.710;23.378;2022-08-21T00:49:44;94591.72;;;18.27;100.00
20077;BME280;12348;42.710;23.378;2022-08-21T00:52:17;94599.34;;;18.21;100.00
20077;BME280;12348;42.710;23.378;2022-08-21T00:54:49;94603.66;;;18.22;100.00
20077;BME280;12348;42.710;23.378;2022-08-21T00:57:20;94611.03;;;18.22;100.00
20077;BME280;12348;42.710;23.378;2022-08-21T00:59:50;94604.38;;;18.19;100.00
20077;BME280;12348;42.710;23.378;2022-08-21T01:02:17;94598.75;;;18.28;100.00
20077;BME280;12348;42.710;23.378;2022-08-21T01:04:45;94586.06;;;18.35;100.00
20077;BME280;12348;42.710;23.378;2022-08-21T01:07:12;94591.16;;;18.37;100.00
20077;BME280;12348;42.710;23.378;2022-08-21T01:09:39;94592.84;;;18.41;100.00
20077;BME280;12348;42.710;23.378;2022-08-21T01:12:08;94589.75;;;18.43;100.00
20077;BME280;12348;42.710;23.378;2022-08-21T01:14:36;94585.63;;;18.49;100.00
20077;BME280;12348;42.710;23.378;2022-08-21T01:17:03;94585.88;;;18.44;100.00
20077;BME280;12348;42.710;23.378;2022-08-21T01:19:31;94576.22;;;18.47;100.00
20077;BME280;12348;42.710;23.378;2022-08-21T01:21:59;94579.66;;;18.44;100.00
20077;BME280;12348;42.710;23.378;2022-08-21T01:24:26;94575.63;;;18.37;100.00
20077;BME280;12348;42.710;23.378;2022-08-21T01:26:53;94578.84;;;18.43;100.00
20077;BME280;12348;42.710;23.378;2022-08-21T01:29:28;94575.63;;;18.37;100.00
20077;BME280;12348;42.710;23.378;2022-08-21T01:31:57;94566.56;;;18.49;100.00
20077;BME280;12348;42.710;23.378;2022-08-21T01:34:24;94573.59;;;18.50;100.00
20077;BME280;12348;42.710;23.378;2022-08-21T01:36:51;94571.31;;;18.52;100.00
20077;BME280;12348;42.710;23.378;2022-08-21T01:39:20;94577.88;;;18.51;100.00
20077;BME280;12348;42.710;23.378;2022-08-21T01:41:46;94577.38;;;18.46;100.00
20077;BME280;12348;42.710;23.378;2022-08-21T01:44:13;94581.22;;;18.45;100.00
20077;BME280;12348;42.710;23.378;2022-08-21T01:46:40;94584.94;;;18.36;100.00
20077;BME280;12348;42.710;23.378;2022-08-21T01:49:07;94587.75;;;18.40;100.00
20077;BME280;12348;42.710;23.378;2022-08-21T01:51:34;94584.22;;;18.39;100.00
20077;BME280;12348;42.710;23.378;2022-08-21T01:54:01;94586.06;;;18.51;100.00
20077;BME280;12348;42.710;23.378;2022-08-21T01:56:35;94589.94;;;18.50;100.00
20077;BME280;12348;42.710;23.378;2022-08-21T01:59:02;94576.69;;;18.49;100.00
20077;BME280;12348;42.710;23.378;2022-08-21T02:01:29;94582.03;;;18.45;100.00
20077;BME280;12348;42.710;23.378;2022-08-21T02:03:56;94587.81;;;18.44;100.00
20077;BME280;12348;42.710;23.378;2022-08-21T02:06:23;94581.78;;;18.34;100.00
20077;BME280;12348;42.710;23.378;2022-08-21T02:08:50;94589.78;;;18.27;100.00
20077;BME280;12348;42.710;23.378;2022-08-21T02:11:17;94589.78;;;18.27;100.00
20077;BME280;12348;42.710;23.378;2022-08-21T02:13:45;94601.00;;;18.26;100.00
20077;BME280;12348;42.710;23.378;2022-08-21T02:16:12;94603.41;;;18.27;100.00
20077;BME280;12348;42.710;23.378;2022-08-21T02:18:39;94603.03;;;18.29;100.00
20077;BME280;12348;42.710;23.378;2022-08-21T02:21:06;94598.75;;;18.28;100.00
20077;BME280;12348;42.710;23.378;2022-08-21T02:23:34;94597.41;;;18.22;100.00
20077;BME280;12348;42.710;23.378;2022-08-21T02:26:03;94593.38;;;18.15;100.00
20077;BME280;12348;42.710;23.378;2022-08-21T02:28:30;94595.47;;;18.06;100.00
20077;BME280;12348;42.710;23.378;2022-08-21T02:31:00;94591.94;;;18.06;100.00
20077;BME280;12348;42.710;23.378;2022-08-21T02:33:28;94596.97;;;18.04;100.00
20077;BME280;12348;42.710;23.378;2022-08-21T02:35:56;94601.19;;;18.01;100.00
20077;BME280;12348;42.710;23.378;2022-08-21T02:38:24;94604.16;;;17.96;100.00
20077;BME280;12348;42.710;23.378;2022-08-21T02:40:53;94603.44;;;17.99;100.00
20077;BME280;12348;42.710;23.378;2022-08-21T02:43:21;94597.22;;;17.99;100.00
20077;BME280;12348;42.710;23.378;2022-08-21T02:45:49;94598.00;;;17.99;100.00
20077;BME280;12348;42.710;23.378;2022-08-21T02:48:24;94594.94;;;18.01;100.00
20077;BME280;12348;42.710;23.378;2022-08-21T02:50:55;94592.81;;;17.94;100.00
20077;BME280;12348;42.710;23.378;2022-08-21T02:53:22;94597.13;;;17.95;100.00
20077;BME280;12348;42.710;23.378;2022-08-21T02:55:51;94605.28;;;17.95;100.00
20077;BME280;12348;42.710;23.378;2022-08-21T02:58:20;94606.97;;;18.00;100.00
20077;BME280;12348;42.710;23.378;2022-08-21T03:00:47;94605.16;;;18.04;100.00
20077;BME280;12348;42.710;23.378;2022-08-21T03:03:13;94603.03;;;17.97;100.00
20077;BME280;12348;42.710;23.378;2022-08-21T03:05:42;94607.25;;;18.10;100.00
20077;BME280;12348;42.710;23.378;2022-08-21T03:08:11;94611.22;;;18.13;100.00
20077;BME280;12348;42.710;23.378;2022-08-21T03:10:41;94610.75;;;18.11;100.00
20077;BME280;12348;42.710;23.378;2022-08-21T03:13:09;94599.75;;;18.07;100.00
20077;BME280;12348;42.710;23.378;2022-08-21T03:15:36;94606.63;;;18.17;100.00
20077;BME280;12348;42.710;23.378;2022-08-21T03:18:04;94606.81;;;18.08;100.00
20077;BME280;12348;42.710;23.378;2022-08-21T03:20:32;94614.81;;;18.01;100.00
20077;BME280;12348;42.710;23.378;2022-08-21T03:23:01;94608.66;;;18.04;100.00
20077;BME280;12348;42.710;23.378;2022-08-21T03:25:30;94604.34;;;18.03;100.00
20077;BME280;12348;42.710;23.378;2022-08-21T03:27:57;94597.75;;;18.04;100.00
20077;BME280;12348;42.710;23.378;2022-08-21T03:30:24;94605.75;;;18.13;100.00
20077;BME280;12348;42.710;23.378;2022-08-21T03:32:51;94623.59;;;18.10;100.00
20077;BME280;12348;42.710;23.378;2022-08-21T03:35:19;94619.66;;;18.08;100.00
20077;BME280;12348;42.710;23.378;2022-08-21T03:37:46;94615.09;;;18.12;100.00
20077;BME280;12348;42.710;23.378;2022-08-21T03:40:16;94610.59;;;18.20;100.00
20077;BME280;12348;42.710;23.378;2022-08-21T03:42:44;94609.38;;;18.17;100.00
20077;BME280;12348;42.710;23.378;2022-08-21T03:45:13;94609.09;;;18.22;100.00
20077;BME280;12348;42.710;23.378;2022-08-21T03:47:50;94607.78;;;18.16;100.00
20077;BME280;12348;42.710;23.378;2022-08-21T03:50:17;94599.59;;;18.00;100.00
20077;BME280;12348;42.710;23.378;2022-08-21T03:52:44;94594.47;;;17.83;100.00
20077;BME280;12348;42.710;23.378;2022-08-21T03:55:11;94615.63;;;17.61;100.00
20077;BME280;12348;42.710;23.378;2022-08-21T03:57:39;94605.22;;;17.51;100.00
20077;BME280;12348;42.710;23.378;2022-08-21T04:00:07;94612.97;;;17.49;100.00
20077;BME280;12348;42.710;23.378;2022-08-21T04:02:35;94614.56;;;17.50;100.00
20077;BME280;12348;42.710;23.378;2022-08-21T04:05:02;94616.47;;;17.50;100.00
20077;BME280;12348;42.710;23.378;2022-08-21T04:07:29;94614.56;;;17.50;100.00
20077;BME280;12348;42.710;23.378;2022-08-21T04:09:56;94612.72;;;17.54;100.00
20077;BME280;12348;42.710;23.378;2022-08-21T04:12:23;94622.91;;;17.57;100.00
20077;BME280;12348;42.710;23.378;2022-08-21T04:14:51;94616.94;;;17.52;100.00
20077;BME280;12348;42.710;23.378;2022-08-21T04:17:18;94616.31;;;17.58;100.00
20077;BME280;12348;42.710;23.378;2022-08-21T04:19:45;94617.78;;;17.68;100.00
20077;BME280;12348;42.710;23.378;2022-08-21T04:22:13;94614.50;;;17.62;100.00
20077;BME280;12348;42.710;23.378;2022-08-21T04:24:39;94618.13;;;17.66;100.00
20077;BME280;12348;42.710;23.378;2022-08-21T04:27:06;94610.28;;;17.65;100.00
20077;BME280;12348;42.710;23.378;2022-08-21T04:29:33;94615.41;;;17.66;100.00
20077;BME280;12348;42.710;23.378;2022-08-21T04:32:01;94599.47;;;17.81;100.00
20077;BME280;12348;42.710;23.378;2022-08-21T04:34:28;94608.78;;;17.80;100.00
20077;BME280;12348;42.710;23.378;2022-08-21T04:36:55;94608.69;;;17.76;100.00
20077;BME280;12348;42.710;23.378;2022-08-21T04:39:22;94605.38;;;17.83;100.00
20077;BME280;12348;42.710;23.378;2022-08-21T04:41:49;94610.31;;;17.93;100.00
20077;BME280;12348;42.710;23.378;2022-08-21T04:44:15;94611.66;;;18.15;100.00
20077;BME280;12348;42.710;23.378;2022-08-21T04:46:43;94613.56;;;18.14;100.00
20077;BME280;12348;42.710;23.378;2022-08-21T04:49:11;94610.41;;;18.44;100.00
20077;BME280;12348;42.710;23.378;2022-08-21T04:51:39;94620.72;;;18.51;100.00
20077;BME280;12348;42.710;23.378;2022-08-21T04:54:09;94627.75;;;18.68;100.00
20077;BME280;12348;42.710;23.378;2022-08-21T04:56:41;94617.56;;;18.64;100.00
20077;BME280;12348;42.710;23.378;2022-08-21T04:59:14;94617.00;;;19.26;100.00
20077;BME280;12348;42.710;23.378;2022-08-21T05:01:43;94605.19;;;20.19;100.00
20077;BME280;12348;42.710;23.378;2022-08-21T05:04:14;94605.00;;;20.50;100.00
20077;BME280;12348;42.710;23.378;2022-08-21T05:06:44;94604.00;;;20.39;100.00
20077;BME280;12348;42.710;23.378;2022-08-21T05:09:15;94607.72;;;21.90;100.00
20077;BME280;12348;42.710;23.378;2022-08-21T05:11:43;94605.28;;;23.08;100.00
20077;BME280;12348;42.710;23.378;2022-08-21T05:14:10;94605.88;;;23.38;100.00
20077;BME280;12348;42.710;23.378;2022-08-21T05:16:37;94605.97;;;23.63;100.00
20077;BME280;12348;42.710;23.378;2022-08-21T05:19:04;94610.28;;;23.54;100.00
20077;BME280;12348;42.710;23.378;2022-08-21T05:21:33;94612.81;;;23.18;100.00
20077;BME280;12348;42.710;23.378;2022-08-21T05:24:00;94604.13;;;23.05;100.00
20077;BME280;12348;42.710;23.378;2022-08-21T05:26:27;94603.63;;;22.92;100.00
20077;BME280;12348;42.710;23.378;2022-08-21T05:28:55;94603.16;;;22.87;100.00
20077;BME280;12348;42.710;23.378;2022-08-21T05:31:22;94594.03;;;22.72;100.00
20077;BME280;12348;42.710;23.378;2022-08-21T05:33:48;94595.88;;;22.57;100.00
20077;BME280;12348;42.710;23.378;2022-08-21T05:36:16;94591.88;;;22.95;100.00
20077;BME280;12348;42.710;23.378;2022-08-21T05:38:44;94587.84;;;22.82;100.00
20077;BME280;12348;42.710;23.378;2022-08-21T05:41:12;94596.47;;;22.36;100.00
20077;BME280;12348;42.710;23.378;2022-08-21T05:43:38;94596.19;;;22.48;100.00
20077;BME280;12348;42.710;23.378;2022-08-21T05:46:06;94597.09;;;22.19;100.00
20077;BME280;12348;42.710;23.378;2022-08-21T05:48:35;94596.59;;;22.98;100.00
20077;BME280;12348;42.710;23.378;2022-08-21T05:51:04;94583.19;;;22.90;100.00
20077;BME280;12348;42.710;23.378;2022-08-21T05:53:32;94579.78;;;23.84;100.00
20077;BME280;12348;42.710;23.378;2022-08-21T05:56:00;94574.03;;;24.57;100.00
20077;BME280;12348;42.710;23.378;2022-08-21T05:58:30;94581.94;;;24.73;100.00
20077;BME280;12348;42.710;23.378;2022-08-21T06:00:58;94572.41;;;24.16;100.00
20077;BME280;12348;42.710;23.378;2022-08-21T06:03:29;94585.53;;;23.50;100.00
20077;BME280;12348;42.710;23.378;2022-08-21T06:05:56;94584.94;;;23.12;100.00
20077;BME280;12348;42.710;23.378;2022-08-21T06:08:24;94576.44;;;22.32;100.00
20077;BME280;12348;42.710;23.378;2022-08-21T06:10:53;94578.81;;;22.85;100.00
20077;BME280;12348;42.710;23.378;2022-08-21T06:13:22;94580.75;;;22.81;100.00
20077;BME280;12348;42.710;23.378;2022-08-21T06:15:49;94584.06;;;22.49;100.00
20077;BME280;12348;42.710;23.378;2022-08-21T06:18:17;94574.91;;;22.83;100.00
20077;BME280;12348;42.710;23.378;2022-08-21T06:20:44;94561.31;;;23.01;100.00
20077;BME280;12348;42.710;23.378;2022-08-21T06:23:10;94569.31;;;24.61;100.00
20077;BME280;12348;42.710;23.378;2022-08-21T06:25:38;94579.22;;;26.70;100.00
20077;BME280;12348;42.710;23.378;2022-08-21T06:28:07;94578.09;;;28.72;92.80
20077;BME280;12348;42.710;23.378;2022-08-21T06:30:36;94566.47;;;29.28;84.91
20077;BME280;12348;42.710;23.378;2022-08-21T06:33:04;94575.94;;;31.32;71.81
20077;BME280;12348;42.710;23.378;2022-08-21T06:35:31;94573.22;;;30.10;75.08
20077;BME280;12348;42.710;23.378;2022-08-21T06:37:58;94574.00;;;29.71;73.85
20077;BME280;12348;42.710;23.378;2022-08-21T06:40:25;94571.91;;;28.34;82.45
20077;BME280;12348;42.710;23.378;2022-08-21T06:42:52;94571.31;;;28.19;84.87
20077;BME280;12348;42.710;23.378;2022-08-21T06:45:19;94571.63;;;27.98;87.35
20077;BME280;12348;42.710;23.378;2022-08-21T06:47:47;94575.53;;;28.58;82.60
20077;BME280;12348;42.710;23.378;2022-08-21T06:50:14;94571.38;;;28.46;80.79
20077;BME280;12348;42.710;23.378;2022-08-21T06:52:41;94576.00;;;27.61;84.77
20077;BME280;12348;42.710;23.378;2022-08-21T06:55:10;94575.06;;;28.63;81.47
20077;BME280;12348;42.710;23.378;2022-08-21T06:57:36;94574.50;;;29.86;75.65
20077;BME280;12348;42.710;23.378;2022-08-21T07:00:04;94586.38;;;32.02;60.62
20077;BME280;12348;42.710;23.378;2022-08-21T07:02:32;94574.41;;;32.82;56.50
20077;BME280;12348;42.710;23.378;2022-08-21T07:05:01;94577.97;;;33.56;51.67
20077;BME280;12348;42.710;23.378;2022-08-21T07:07:27;94592.66;;;33.47;51.25
20077;BME280;12348;42.710;23.378;2022-08-21T07:09:54;94590.38;;;34.11;50.47
20077;BME280;12348;42.710;23.378;2022-08-21T07:12:21;94584.91;;;34.08;49.70
20077;BME280;12348;42.710;23.378;2022-08-21T07:14:48;94579.81;;;33.93;52.00
20077;BME280;12348;42.710;23.378;2022-08-21T07:17:14;94576.41;;;35.23;48.14
20077;BME280;12348;42.710;23.378;2022-08-21T07:19:41;94566.31;;;36.17;43.41
20077;BME280;12348;42.710;23.378;2022-08-21T07:22:09;94575.00;;;38.10;38.30
20077;BME280;12348;42.710;23.378;2022-08-21T07:24:36;94581.22;;;36.60;41.98
20077;BME280;12348;42.710;23.378;2022-08-21T07:27:03;94584.56;;;37.40;38.58
20077;BME280;12348;42.710;23.378;2022-08-21T07:29:30;94571.88;;;36.45;42.00
20077;BME280;12348;42.710;23.378;2022-08-21T07:31:57;94568.38;;;37.35;39.34
20077;BME280;12348;42.710;23.378;2022-08-21T07:34:23;94560.47;;;38.41;36.90
20077;BME280;12348;42.710;23.378;2022-08-21T07:36:50;94557.13;;;35.43;43.37
20077;BME280;12348;42.710;23.378;2022-08-21T07:39:18;94565.25;;;36.67;39.12
20077;BME280;12348;42.710;23.378;2022-08-21T07:41:45;94552.91;;;34.09;46.64
20077;BME280;12348;42.710;23.378;2022-08-21T07:44:12;94550.63;;;33.94;46.90
20077;BME280;12348;42.710;23.378;2022-08-21T07:46:39;94548.09;;;32.83;51.53
20077;BME280;12348;42.710;23.378;2022-08-21T07:49:06;94545.34;;;33.18;52.21
20077;BME280;12348;42.710;23.378;2022-08-21T07:51:33;94541.09;;;35.16;47.75
20077;BME280;12348;42.710;23.378;2022-08-21T07:54:00;94535.84;;;36.01;42.92
20077;BME280;12348;42.710;23.378;2022-08-21T07:56:30;94536.66;;;34.88;46.78
20077;BME280;12348;42.710;23.378;2022-08-21T07:58:57;94533.19;;;34.34;47.50
20077;BME280;12348;42.710;23.378;2022-08-21T08:01:24;94540.38;;;35.62;43.44
20077;BME280;12348;42.710;23.378;2022-08-21T08:03:51;94552.38;;;34.85;45.70
20077;BME280;12348;42.710;23.378;2022-08-21T08:06:18;94547.06;;;34.87;44.74
20077;BME280;12348;42.710;23.378;2022-08-21T08:08:46;94542.88;;;36.57;41.71
20077;BME280;12348;42.710;23.378;2022-08-21T08:11:13;94542.03;;;34.64;47.26
20077;BME280;12348;42.710;23.378;2022-08-21T08:13:44;94534.59;;;35.93;44.98
20077;BME280;12348;42.710;23.378;2022-08-21T08:16:11;94542.31;;;36.77;40.36
20077;BME280;12348;42.710;23.378;2022-08-21T08:18:38;94540.50;;;35.86;41.82
20077;BME280;12348;42.710;23.378;2022-08-21T08:21:06;94539.38;;;36.20;40.70
20077;BME280;12348;42.710;23.378;2022-08-21T08:23:34;94541.41;;;34.60;45.81
20077;BME280;12348;42.710;23.378;2022-08-21T08:26:01;94532.25;;;32.16;54.66
20077;BME280;12348;42.710;23.378;2022-08-21T08:28:29;94538.41;;;32.49;53.50
20077;BME280;12348;42.710;23.378;2022-08-21T08:30:59;94533.13;;;32.77;52.58
20077;BME280;12348;42.710;23.378;2022-08-21T08:33:26;94542.59;;;30.83;60.51
20077;BME280;12348;42.710;23.378;2022-08-21T08:35:54;94534.81;;;31.23;60.15
20077;BME280;12348;42.710;23.378;2022-08-21T08:38:23;94532.34;;;31.25;57.91
20077;BME280;12348;42.710;23.378;2022-08-21T08:40:55;94528.00;;;29.50;66.61
20077;BME280;12348;42.710;23.378;2022-08-21T08:43:25;94535.72;;;29.62;65.36
20077;BME280;12348;42.710;23.378;2022-08-21T08:45:55;94541.00;;;29.77;67.94
20077;BME280;12348;42.710;23.378;2022-08-21T08:48:35;94542.34;;;28.27;72.92
20077;BME280;12348;42.710;23.378;2022-08-21T08:51:05;94540.47;;;28.21;72.61
20077;BME280;12348;42.710;23.378;2022-08-21T08:53:43;94534.09;;;27.28;78.43
20077;BME280;12348;42.710;23.378;2022-08-21T08:56:12;94534.13;;;27.59;77.95
20077;BME280;12348;42.710;23.378;2022-08-21T08:58:41;94528.25;;;27.88;75.70
20077;BME280;12348;42.710;23.378;2022-08-21T09:01:14;94526.59;;;26.84;78.13
20077;BME280;12348;42.710;23.378;2022-08-21T09:03:44;94527.97;;;27.06;78.97
20077;BME280;12348;42.710;23.378;2022-08-21T09:06:22;94525.94;;;27.14;79.24
20077;BME280;12348;42.710;23.378;2022-08-21T09:08:57;94523.59;;;26.12;88.09
20077;BME280;12348;42.710;23.378;2022-08-21T09:11:29;94521.38;;;27.35;80.22
20077;BME280;12348;42.710;23.378;2022-08-21T09:14:05;94512.28;;;28.26;75.84
20077;BME280;12348;42.710;23.378;2022-08-21T09:16:45;94503.09;;;28.83;71.98
20077;BME280;12348;42.710;23.378;2022-08-21T09:19:28;94504.34;;;29.65;67.55
20077;BME280;12348;42.710;23.378;2022-08-21T09:22:06;94501.31;;;29.16;69.52
20077;BME280;12348;42.710;23.378;2022-08-21T09:24:41;94503.97;;;29.43;67.69
20077;BME280;12348;42.710;23.378;2022-08-21T09:27:11;94492.78;;;29.07;67.14
20077;BME280;12348;42.710;23.378;2022-08-21T09:29:42;94487.66;;;29.26;67.89
20077;BME280;12348;42.710;23.378;2022-08-21T09:32:16;94496.69;;;29.30;67.61
20077;BME280;12348;42.710;23.378;2022-08-21T09:34:55;94495.16;;;29.29;67.04
20077;BME280;12348;42.710;23.378;2022-08-21T09:37:22;94496.75;;;29.86;63.67
20077;BME280;12348;42.710;23.378;2022-08-21T09:39:50;94492.72;;;31.79;57.38
20077;BME280;12348;42.710;23.378;2022-08-21T09:42:22;94493.34;;;29.38;66.21
20077;BME280;12348;42.710;23.378;2022-08-21T09:45:06;94490.28;;;30.94;56.91
20077;BME280;12348;42.710;23.378;2022-08-21T09:47:34;94499.44;;;31.53;55.24
20077;BME280;12348;42.710;23.378;2022-08-21T09:50:11;94494.56;;;31.57;53.36
20077;BME280;12348;42.710;23.378;2022-08-21T09:52:44;94489.31;;;31.59;53.33
20077;BME280;12348;42.710;23.378;2022-08-21T09:55:17;94488.72;;;30.44;59.58
20077;BME280;12348;42.710;23.378;2022-08-21T09:57:59;94499.63;;;27.37;73.12
20077;BME280;12348;42.710;23.378;2022-08-21T10:00:28;94490.91;;;27.04;76.70
20077;BME280;12348;42.710;23.378;2022-08-21T10:03:07;94485.78;;;27.37;76.55
20077;BME280;12348;42.710;23.378;2022-08-21T10:05:37;94483.09;;;26.50;79.77
20077;BME280;12348;42.710;23.378;2022-08-21T10:08:04;94485.41;;;26.07;82.81
20077;BME280;12348;42.710;23.378;2022-08-21T10:10:38;94476.91;;;25.80;84.25
20077;BME280;12348;42.710;23.378;2022-08-21T10:13:11;94469.13;;;25.53;87.19
20077;BME280;12348;42.710;23.378;2022-08-21T10:15:47;94458.84;;;25.64;87.35
20077;BME280;12348;42.710;23.378;2022-08-21T10:18:22;94470.88;;;25.15;91.47
20077;BME280;12348;42.710;23.378;2022-08-21T10:20:56;94471.69;;;25.01;92.23
20077;BME280;12348;42.710;23.378;2022-08-21T10:23:46;94470.50;;;25.06;93.13
20077;BME280;12348;42.710;23.378;2022-08-21T10:26:26;94461.16;;;24.64;95.69
20077;BME280;12348;42.710;23.378;2022-08-21T10:29:02;94467.03;;;24.87;94.89
20077;BME280;12348;42.710;23.378;2022-08-21T10:31:39;94464.97;;;25.13;91.34
20077;BME280;12348;42.710;23.378;2022-08-21T10:34:21;94456.53;;;25.52;90.28
20077;BME280;12348;42.710;23.378;2022-08-21T10:37:01;94456.41;;;25.77;90.80
20077;BME280;12348;42.710;23.378;2022-08-21T10:39:34;94456.13;;;26.20;84.85
20077;BME280;12348;42.710;23.378;2022-08-21T10:42:25;94455.47;;;26.02;84.38
20077;BME280;12348;42.710;23.378;2022-08-21T10:45:05;94452.56;;;26.23;82.41
20077;BME280;12348;42.710;23.378;2022-08-21T10:47:41;94446.34;;;26.61;81.73
20077;BME280;12348;42.710;23.378;2022-08-21T10:50:19;94442.66;;;27.12;77.58
20077;BME280;12348;42.710;23.378;2022-08-21T10:55:52;94447.81;;;27.75;75.01
20077;BME280;12348;42.710;23.378;2022-08-21T10:58:26;94436.78;;;27.03;82.59
20077;BME280;12348;42.710;23.378;2022-08-21T11:00:58;94434.88;;;27.92;75.33
20077;BME280;12348;42.710;23.378;2022-08-21T11:03:32;94429.28;;;27.03;79.80
20077;BME280;12348;42.710;23.378;2022-08-21T11:06:02;94430.41;;;26.75;78.99
20077;BME280;12348;42.710;23.378;2022-08-21T11:08:38;94420.38;;;27.26;76.40
20077;BME280;12348;42.710;23.378;2022-08-21T11:11:08;94420.91;;;27.14;80.08
20077;BME280;12348;42.710;23.378;2022-08-21T11:13:40;94409.91;;;27.41;79.11
20077;BME280;12348;42.710;23.378;2022-08-21T11:16:14;94413.28;;;26.50;81.99
20077;BME280;12348;42.710;23.378;2022-08-21T11:18:49;94410.03;;;27.30;78.25
20077;BME280;12348;42.710;23.378;2022-08-21T11:21:27;94400.63;;;28.09;74.86
20077;BME280;12348;42.710;23.378;2022-08-21T11:24:03;94407.88;;;27.99;71.32
20077;BME280;12348;42.710;23.378;2022-08-21T11:26:39;94394.09;;;27.96;72.41
20077;BME280;12348;42.710;23.378;2022-08-21T11:29:12;94405.94;;;27.12;73.99
20077;BME280;12348;42.710;23.378;2022-08-21T11:31:51;94400.88;;;27.64;71.54
20077;BME280;12348;42.710;23.378;2022-08-21T11:34:30;94390.59;;;28.42;69.31
20077;BME280;12348;42.710;23.378;2022-08-21T11:37:10;94397.78;;;26.97;75.06
20077;BME280;12348;42.710;23.378;2022-08-21T11:39:47;94403.69;;;26.62;74.50
20077;BME280;12348;42.710;23.378;2022-08-21T11:42:22;94396.50;;;26.71;73.96
20077;BME280;12348;42.710;23.378;2022-08-21T11:44:59;94401.25;;;26.71;78.03
20077;BME280;12348;42.710;23.378;2022-08-21T11:47:35;94407.28;;;26.96;73.58
20077;BME280;12348;42.710;23.378;2022-08-21T11:50:13;94398.59;;;26.60;77.15
20077;BME280;12348;42.710;23.378;2022-08-21T11:52:45;94400.41;;;26.32;77.54
20077;BME280;12348;42.710;23.378;2022-08-21T11:55:19;94397.44;;;26.57;76.18
20077;BME280;12348;42.710;23.378;2022-08-21T11:57:53;94392.75;;;26.51;75.50
20077;BME280;12348;42.710;23.378;2022-08-21T12:00:25;94386.28;;;26.68;75.20
20077;BME280;12348;42.710;23.378;2022-08-21T12:02:55;94385.28;;;26.86;75.24
20077;BME280;12348;42.710;23.378;2022-08-21T12:05:29;94388.84;;;26.48;78.48
20077;BME280;12348;42.710;23.378;2022-08-21T12:08:03;94390.00;;;26.06;79.95
20077;BME280;12348;42.710;23.378;2022-08-21T12:10:36;94381.66;;;26.13;80.22
20077;BME280;12348;42.710;23.378;2022-08-21T12:13:07;94373.19;;;25.90;82.14
20077;BME280;12348;42.710;23.378;2022-08-21T12:15:37;94375.34;;;26.13;80.99
20077;BME280;12348;42.710;23.378;2022-08-21T12:18:05;94370.34;;;26.00;80.31
20077;BME280;12348;42.710;23.378;2022-08-21T12:20:42;94367.91;;;25.50;83.94
20077;BME280;12348;42.710;23.378;2022-08-21T12:23:26;94382.50;;;25.51;85.79
20077;BME280;12348;42.710;23.378;2022-08-21T12:26:17;94388.41;;;25.53;84.66
20077;BME280;12348;42.710;23.378;2022-08-21T12:28:46;94385.63;;;25.56;84.61
20077;BME280;12348;42.710;23.378;2022-08-21T12:31:22;94383.03;;;25.24;87.53
20077;BME280;12348;42.710;23.378;2022-08-21T12:33:54;94386.53;;;25.35;86.91
20077;BME280;12348;42.710;23.378;2022-08-21T12:36:24;94393.84;;;24.79;88.86
20077;BME280;12348;42.710;23.378;2022-08-21T12:38:54;94381.94;;;25.07;88.34
20077;BME280;12348;42.710;23.378;2022-08-21T12:41:28;94381.56;;;24.98;90.08
20077;BME280;12348;42.710;23.378;2022-08-21T12:43:59;94377.97;;;25.15;87.90
20077;BME280;12348;42.710;23.378;2022-08-21T12:46:37;94379.47;;;25.27;88.20
20077;BME280;12348;42.710;23.378;2022-08-21T12:49:14;94384.81;;;24.75;89.81
20077;BME280;12348;42.710;23.378;2022-08-21T12:51:50;94373.03;;;24.71;90.62
20077;BME280;12348;42.710;23.378;2022-08-21T12:54:27;94378.06;;;24.90;89.05
20077;BME280;12348;42.710;23.378;2022-08-21T12:57:01;94374.88;;;24.99;89.15
20077;BME280;12348;42.710;23.378;2022-08-21T12:59:29;94376.41;;;25.07;88.21
20077;BME280;12348;42.710;23.378;2022-08-21T13:01:58;94373.38;;;24.87;89.61